Time;durP1;ratioP1;P1;durP2;ratioP2;P2;SDS_P1;SDS_P2;PMS_P1;PMS_P2;Temp;Humidity;BMP_temperature;BMP_pressure;BME280_temperature;BME280_humidity;BME280_pressure;Samples;Min_cycle;Max_cycle;Signal;HPM_P1;HPM_P2
2022/04/09 00:00:07;;;;;;;1.53;1.30;;;5.10;98.20;;;;;;5028626;28;20491;-76
2022/04/09 00:02:34;;;;;;;1.60;1.50;;;5.00;98.20;;;;;;5014636;28;20982;-77
2022/04/09 00:05:02;;;;;;;1.57;1.30;;;5.00;98.20;;;;;;5008133;28;20468;-76
2022/04/09 00:07:29;;;;;;;1.60;1.40;;;5.00;98.20;;;;;;5022012;28;20464;-77
2022/04/09 00:09:56;;;;;;;1.50;1.27;;;5.00;98.20;;;;;;5023402;28;20495;-77
2022/04/09 00:12:22;;;;;;;1.53;1.30;;;5.00;98.20;;;;;;5010097;28;20462;-77
2022/04/09 00:14:49;;;;;;;1.60;1.30;;;4.90;98.20;;;;;;5007736;28;21007;-77
2022/04/09 00:17:16;;;;;;;1.60;1.50;;;4.90;98.20;;;;;;5008682;28;20456;-77
2022/04/09 00:19:43;;;;;;;1.60;1.40;;;4.90;98.20;;;;;;5007069;28;20484;-76
2022/04/09 00:22:11;;;;;;;1.60;1.40;;;4.90;98.20;;;;;;5005030;28;20475;-77
2022/04/09 00:24:38;;;;;;;1.50;1.30;;;4.80;98.20;;;;;;5009061;28;20471;-76
2022/04/09 00:27:06;;;;;;;1.60;1.30;;;4.80;98.20;;;;;;5018476;28;20455;-76
2022/04/09 00:29:32;;;;;;;1.57;1.37;;;4.80;98.20;;;;;;5028369;28;20486;-77
2022/04/09 00:31:59;;;;;;;1.57;1.40;;;4.80;98.20;;;;;;5018969;28;20805;-77
2022/04/09 00:34:26;;;;;;;1.50;1.30;;;4.80;98.20;;;;;;5008257;28;20880;-77
2022/04/09 00:36:53;;;;;;;1.50;1.30;;;4.70;98.20;;;;;;5012313;28;20737;-77
2022/04/09 00:39:21;;;;;;;1.60;1.40;;;4.70;98.20;;;;;;4992837;28;20571;-77
2022/04/09 00:41:49;;;;;;;1.57;1.40;;;4.70;98.20;;;;;;5009134;28;20506;-76
2022/04/09 00:44:17;;;;;;;1.57;1.40;;;4.70;98.20;;;;;;5008663;28;20850;-76
2022/04/09 00:46:44;;;;;;;1.57;1.40;;;4.70;98.20;;;;;;5015491;28;20520;-76
2022/04/09 00:49:11;;;;;;;1.60;1.40;;;4.60;98.20;;;;;;5028185;28;20527;-76
2022/04/09 00:51:40;;;;;;;1.60;1.40;;;4.60;98.20;;;;;;5021703;28;20464;-76
2022/04/09 00:54:08;;;;;;;1.53;1.37;;;4.60;98.20;;;;;;5008055;28;20460;-76
2022/04/09 00:56:38;;;;;;;1.60;1.40;;;4.50;98.20;;;;;;5013738;28;20459;-76
2022/04/09 00:59:07;;;;;;;1.60;1.40;;;4.50;98.20;;;;;;5021591;28;20580;-76
2022/04/09 01:01:35;;;;;;;1.60;1.50;;;4.50;98.20;;;;;;5012025;28;20486;-76
2022/04/09 01:04:07;;;;;;;1.60;1.40;;;4.50;98.20;;;;;;5028295;28;20526;-76
2022/04/09 01:06:34;;;;;;;1.70;1.60;;;4.50;98.20;;;;;;5015774;28;20542;-76
2022/04/09 01:09:00;;;;;;;1.50;1.30;;;4.50;98.20;;;;;;5008196;28;20484;-76
2022/04/09 01:11:27;;;;;;;1.53;1.40;;;4.40;98.20;;;;;;5010253;28;20463;-76
2022/04/09 01:13:56;;;;;;;1.57;1.40;;;4.40;98.20;;;;;;5006045;28;20618;-76
2022/04/09 01:16:24;;;;;;;1.60;1.40;;;4.40;98.20;;;;;;5008435;28;20899;-76
2022/04/09 01:18:51;;;;;;;1.57;1.40;;;4.40;98.20;;;;;;5007159;28;20484;-76
2022/04/09 01:21:17;;;;;;;1.60;1.40;;;4.40;98.20;;;;;;5011054;28;20474;-76
2022/04/09 01:23:45;;;;;;;1.60;1.30;;;4.40;98.20;;;;;;5011477;28;20487;-77
2022/04/09 01:26:12;;;;;;;1.60;1.50;;;4.40;98.20;;;;;;5008799;28;20472;-77
2022/04/09 01:28:39;;;;;;;1.60;1.40;;;4.40;98.20;;;;;;5010948;28;20480;-76
2022/04/09 01:31:06;;;;;;;1.53;1.40;;;4.40;98.20;;;;;;5011963;28;20793;-76
2022/04/09 01:33:33;;;;;;;1.57;1.30;;;4.40;98.20;;;;;;5022782;28;20471;-76
2022/04/09 01:36:00;;;;;;;1.60;1.40;;;4.30;98.20;;;;;;5011657;28;20460;-76
2022/04/09 01:38:27;;;;;;;1.60;1.40;;;4.30;98.20;;;;;;5028391;28;20455;-76
2022/04/09 01:40:55;;;;;;;1.57;1.40;;;4.30;98.20;;;;;;5009695;28;20460;-76
2022/04/09 01:43:22;;;;;;;1.60;1.40;;;4.30;98.20;;;;;;5012287;28;20480;-76
2022/04/09 01:45:49;;;;;;;1.53;1.30;;;4.30;98.20;;;;;;5009798;28;20460;-77
2022/04/09 01:48:16;;;;;;;1.60;1.40;;;4.30;98.20;;;;;;5030713;28;20455;-76
2022/04/09 01:50:42;;;;;;;1.50;1.30;;;4.30;98.20;;;;;;5029586;28;20463;-76
2022/04/09 01:53:09;;;;;;;1.60;1.43;;;4.20;98.20;;;;;;5010090;28;20464;-76
2022/04/09 01:55:37;;;;;;;1.53;1.40;;;4.20;98.20;;;;;;5009493;28;20468;-76
2022/04/09 01:58:06;;;;;;;1.60;1.50;;;4.30;98.20;;;;;;5026974;28;20469;-76
2022/04/09 02:00:32;;;;;;;1.50;1.30;;;4.30;98.20;;;;;;5009319;28;20530;-76
2022/04/09 02:02:59;;;;;;;1.60;1.50;;;4.30;98.20;;;;;;5026331;28;20483;-76
2022/04/09 02:05:26;;;;;;;1.50;1.30;;;4.30;98.20;;;;;;5030557;28;20467;-76
2022/04/09 02:07:53;;;;;;;1.60;1.50;;;4.30;98.20;;;;;;5013068;28;20461;-76
2022/04/09 02:10:20;;;;;;;1.60;1.50;;;4.30;98.20;;;;;;5010350;28;20484;-78
2022/04/09 02:12:47;;;;;;;1.60;1.30;;;4.20;98.20;;;;;;5012166;28;20463;-76
2022/04/09 02:15:17;;;;;;;1.57;1.30;;;4.20;98.20;;;;;;5010350;28;20499;-77
2022/04/09 02:17:45;;;;;;;1.53;1.40;;;4.20;98.20;;;;;;5010761;28;20829;-77
2022/04/09 02:20:14;;;;;;;1.57;1.40;;;4.20;98.20;;;;;;5009565;28;20521;-77
2022/04/09 02:22:42;;;;;;;1.60;1.40;;;4.20;98.20;;;;;;5024054;28;20466;-76
2022/04/09 02:25:11;;;;;;;1.57;1.40;;;4.20;98.20;;;;;;5025201;28;20936;-77
2022/04/09 02:27:38;;;;;;;1.60;1.50;;;4.20;98.20;;;;;;5025123;28;20557;-76
2022/04/09 02:30:08;;;;;;;1.60;1.47;;;4.20;98.20;;;;;;5030210;28;20483;-76
2022/04/09 02:32:43;;;;;;;1.60;1.40;;;4.20;98.20;;;;;;5015076;28;20464;-76
2022/04/09 02:35:11;;;;;;;1.60;1.30;;;4.20;98.20;;;;;;5009091;28;20510;-77
2022/04/09 02:37:38;;;;;;;1.57;1.37;;;4.20;98.20;;;;;;5007719;28;20467;-76
2022/04/09 02:40:06;;;;;;;1.60;1.50;;;4.20;98.20;;;;;;4998504;28;20883;-76
2022/04/09 02:42:32;;;;;;;1.60;1.30;;;4.20;98.20;;;;;;5012320;28;20467;-76
2022/04/09 02:44:59;;;;;;;1.60;1.40;;;4.20;98.20;;;;;;5009842;28;20495;-76
2022/04/09 02:47:26;;;;;;;1.60;1.40;;;4.20;98.20;;;;;;5022957;28;20462;-77
2022/04/09 02:49:54;;;;;;;1.60;1.40;;;4.20;98.20;;;;;;5029729;28;20486;-76
2022/04/09 02:52:21;;;;;;;1.60;1.40;;;4.20;98.20;;;;;;5016665;28;20845;-77
2022/04/09 02:54:47;;;;;;;1.60;1.50;;;4.20;98.20;;;;;;5008705;28;20460;-76
2022/04/09 02:57:14;;;;;;;1.60;1.40;;;4.20;98.20;;;;;;5020464;28;20451;-76
2022/04/09 02:59:41;;;;;;;1.60;1.50;;;4.20;98.20;;;;;;5018036;28;20487;-76
2022/04/09 03:02:08;;;;;;;1.60;1.40;;;4.20;98.20;;;;;;5020139;28;20455;-76
2022/04/09 03:04:35;;;;;;;1.50;1.33;;;4.20;98.20;;;;;;5029445;28;20500;-76
2022/04/09 03:07:03;;;;;;;1.60;1.40;;;4.30;98.20;;;;;;5023593;28;20459;-77
2022/04/09 03:09:30;;;;;;;1.60;1.47;;;4.40;98.20;;;;;;5028171;28;20486;-76
2022/04/09 03:11:57;;;;;;;1.53;1.30;;;4.40;98.20;;;;;;5011695;28;20464;-76
2022/04/09 03:14:24;;;;;;;1.60;1.40;;;4.40;98.20;;;;;;5009131;28;20464;-77
2022/04/09 03:16:51;;;;;;;1.50;1.33;;;4.50;98.20;;;;;;5016994;28;20488;-77
2022/04/09 03:19:17;;;;;;;1.60;1.50;;;4.50;98.20;;;;;;5018536;28;20484;-76
2022/04/09 03:21:44;;;;;;;1.50;1.33;;;4.60;98.20;;;;;;5016408;28;20768;-76
2022/04/09 03:24:12;;;;;;;1.60;1.50;;;4.60;98.20;;;;;;5026681;28;20498;-76
2022/04/09 03:26:39;;;;;;;1.60;1.50;;;4.60;98.20;;;;;;5015961;28;20451;-76
2022/04/09 03:29:06;;;;;;;1.60;1.40;;;4.60;98.20;;;;;;5028914;28;20494;-77
2022/04/09 03:31:35;;;;;;;1.60;1.40;;;4.70;98.20;;;;;;5022567;28;20464;-76
2022/04/09 03:34:03;;;;;;;1.60;1.30;;;4.70;98.20;;;;;;5007520;28;20957;-76
2022/04/09 03:36:30;;;;;;;1.60;1.40;;;4.70;98.20;;;;;;5014028;28;20463;-76
2022/04/09 03:38:57;;;;;;;1.60;1.50;;;4.70;98.20;;;;;;5023918;28;20559;-77
2022/04/09 03:41:25;;;;;;;1.57;1.40;;;4.70;98.20;;;;;;5010619;28;20467;-77
2022/04/09 03:43:52;;;;;;;1.60;1.40;;;4.70;98.20;;;;;;5008723;28;20475;-77
2022/04/09 03:46:18;;;;;;;1.60;1.50;;;4.70;98.20;;;;;;5011258;28;20467;-76
2022/04/09 03:48:45;;;;;;;1.70;1.60;;;4.70;98.20;;;;;;5028021;28;20492;-77
2022/04/09 03:51:12;;;;;;;1.60;1.40;;;4.60;98.20;;;;;;5025073;28;20924;-77
2022/04/09 03:53:39;;;;;;;1.70;1.60;;;4.60;98.20;;;;;;5008809;28;20556;-77
2022/04/09 03:56:06;;;;;;;1.60;1.40;;;4.70;98.20;;;;;;5010947;28;21062;-77
2022/04/09 03:58:37;;;;;;;1.53;1.30;;;4.70;98.20;;;;;;5028486;28;20466;-76
2022/04/09 04:01:04;;;;;;;1.53;1.30;;;4.70;98.20;;;;;;5026041;28;20912;-77
2022/04/09 04:03:31;;;;;;;1.60;1.40;;;4.70;98.20;;;;;;5008223;28;20867;-77
2022/04/09 04:05:58;;;;;;;1.60;1.30;;;4.70;98.20;;;;;;5009384;28;20495;-77
2022/04/09 04:08:24;;;;;;;1.60;1.50;;;4.70;98.20;;;;;;5028532;28;20470;-77
2022/04/09 04:10:51;;;;;;;1.60;1.40;;;4.80;98.20;;;;;;5005751;28;20460;-76
2022/04/09 04:13:18;;;;;;;1.60;1.40;;;4.80;98.20;;;;;;4984516;28;20869;-77
2022/04/09 04:15:46;;;;;;;1.57;1.40;;;4.80;98.20;;;;;;4968873;28;20478;-76
2022/04/09 04:18:13;;;;;;;1.57;1.30;;;4.80;98.20;;;;;;4998661;28;20462;-76
2022/04/09 04:20:40;;;;;;;1.60;1.40;;;4.90;98.20;;;;;;4987390;28;20559;-76
2022/04/09 04:23:07;;;;;;;1.60;1.40;;;4.90;98.20;;;;;;4979554;28;20489;-76
2022/04/09 04:25:34;;;;;;;1.57;1.40;;;4.90;98.20;;;;;;5006124;28;20488;-77
2022/04/09 04:28:00;;;;;;;1.67;1.57;;;4.90;98.20;;;;;;4988970;28;20468;-76
2022/04/09 04:30:27;;;;;;;1.60;1.50;;;4.90;98.20;;;;;;4988109;28;20488;-76
2022/04/09 04:32:55;;;;;;;1.60;1.40;;;4.90;98.20;;;;;;4988517;28;20465;-76
2022/04/09 04:35:22;;;;;;;1.57;1.40;;;4.90;98.20;;;;;;4989184;28;20461;-77
2022/04/09 04:37:49;;;;;;;1.53;1.40;;;4.90;98.20;;;;;;5005015;28;20540;-76
2022/04/09 04:40:16;;;;;;;1.57;1.30;;;4.90;98.20;;;;;;5001000;28;20485;-77
2022/04/09 04:42:44;;;;;;;1.57;1.30;;;4.90;98.20;;;;;;4989503;28;20473;-76
2022/04/09 04:45:11;;;;;;;1.57;1.30;;;4.90;98.20;;;;;;4987865;28;20496;-76
2022/04/09 04:47:45;;;;;;;1.60;1.50;;;4.80;98.20;;;;;;5001017;28;20467;-76
2022/04/09 04:50:15;;;;;;;1.60;1.40;;;4.80;98.20;;;;;;5008095;28;20480;-77
2022/04/09 04:52:42;;;;;;;1.60;1.40;;;4.80;98.20;;;;;;4992643;28;20473;-76
2022/04/09 04:55:09;;;;;;;1.60;1.50;;;4.80;98.20;;;;;;4980660;28;20461;-76
2022/04/09 04:57:43;;;;;;;1.60;1.40;;;4.80;98.20;;;;;;4986849;28;20461;-77
2022/04/09 05:00:11;;;;;;;1.60;1.37;;;4.80;98.20;;;;;;4991661;28;20897;-76
2022/04/09 05:02:38;;;;;;;1.60;1.40;;;4.80;98.20;;;;;;5004122;28;20460;-76
2022/04/09 05:05:06;;;;;;;1.57;1.30;;;4.80;98.20;;;;;;4992573;28;20764;-76
2022/04/09 05:07:45;;;;;;;1.53;1.40;;;4.80;98.20;;;;;;4991374;28;20477;-76
2022/04/09 05:10:13;;;;;;;1.60;1.40;;;4.80;98.20;;;;;;4991281;28;20885;-77
2022/04/09 05:12:41;;;;;;;1.77;1.67;;;4.80;98.20;;;;;;4993380;28;20461;-77
2022/04/09 05:15:10;;;;;;;1.80;1.70;;;4.80;98.20;;;;;;4991746;28;20471;-77
2022/04/09 05:17:37;;;;;;;1.60;1.30;;;4.80;98.20;;;;;;5005429;28;20452;-77
2022/04/09 05:20:05;;;;;;;1.60;1.30;;;4.80;98.20;;;;;;5011462;28;21021;-76
2022/04/09 05:22:32;;;;;;;1.60;1.50;;;4.90;98.20;;;;;;4997325;28;20465;-76
2022/04/09 05:25:00;;;;;;;1.60;1.40;;;4.80;98.20;;;;;;4991277;28;20496;-76
2022/04/09 05:27:27;;;;;;;1.57;1.30;;;4.80;98.20;;;;;;5004775;28;20623;-77
2022/04/09 05:29:54;;;;;;;1.60;1.40;;;4.80;98.20;;;;;;5011347;28;20570;-77
2022/04/09 05:32:21;;;;;;;1.53;1.30;;;4.80;98.20;;;;;;5011525;28;20456;-76
2022/04/09 05:34:48;;;;;;;1.60;1.40;;;4.90;98.20;;;;;;5004168;28;20468;-77
2022/04/09 05:37:15;;;;;;;1.60;1.30;;;4.90;98.20;;;;;;4991280;28;20849;-79
2022/04/09 05:39:43;;;;;;;1.60;1.40;;;4.90;98.20;;;;;;4985520;28;21035;-77
2022/04/09 05:42:11;;;;;;;1.60;1.30;;;4.90;98.20;;;;;;4989876;28;20559;-77
2022/04/09 05:44:38;;;;;;;1.60;1.50;;;5.00;98.20;;;;;;4991573;28;21448;-75
2022/04/09 05:47:06;;;;;;;1.60;1.40;;;5.00;98.20;;;;;;5000249;28;20463;-78
2022/04/09 05:49:33;;;;;;;1.60;1.43;;;5.00;98.20;;;;;;5011200;28;20553;-77
2022/04/09 05:52:00;;;;;;;1.57;1.40;;;5.00;98.20;;;;;;5010944;28;20627;-77
2022/04/09 05:54:26;;;;;;;1.60;1.40;;;5.00;98.20;;;;;;4994907;28;20461;-77
2022/04/09 05:56:53;;;;;;;1.60;1.40;;;5.00;98.20;;;;;;4999622;28;21271;-78
2022/04/09 05:59:21;;;;;;;1.60;1.40;;;5.00;98.20;;;;;;5001427;28;20507;-77
2022/04/09 06:01:48;;;;;;;1.57;1.30;;;5.10;98.20;;;;;;4998800;28;20460;-77
2022/04/09 06:04:19;;;;;;;1.60;1.43;;;5.10;98.20;;;;;;4998060;28;20481;-77
2022/04/09 06:06:46;;;;;;;1.60;1.50;;;5.10;98.20;;;;;;4981128;28;20577;-77
2022/04/09 06:09:13;;;;;;;1.60;1.43;;;5.10;98.20;;;;;;4996521;28;20483;-78
2022/04/09 06:11:40;;;;;;;1.57;1.40;;;5.20;98.20;;;;;;4991594;28;20818;-78
2022/04/09 06:14:07;;;;;;;1.53;1.33;;;5.40;98.20;;;;;;4990460;28;20465;-78
2022/04/09 06:16:38;;;;;;;1.50;1.20;;;5.50;98.20;;;;;;4996465;28;20809;-79
2022/04/09 06:19:05;;;;;;;1.60;1.50;;;5.50;98.20;;;;;;5004669;28;20513;-78
2022/04/09 06:21:33;;;;;;;13.63;2.03;;;5.60;98.20;;;;;;4992417;28;20464;-78
2022/04/09 06:24:00;;;;;;;1.53;1.33;;;5.60;98.20;;;;;;5010506;28;20453;-78
2022/04/09 06:26:27;;;;;;;1.57;1.30;;;5.60;98.20;;;;;;5005547;28;20936;-78
2022/04/09 06:28:53;;;;;;;1.60;1.50;;;5.60;98.20;;;;;;5010782;28;20484;-78
2022/04/09 06:31:20;;;;;;;1.60;1.30;;;5.70;98.20;;;;;;5006085;28;20461;-77
2022/04/09 06:33:48;;;;;;;1.50;1.20;;;6.00;98.20;;;;;;4990399;28;20460;-77
2022/04/09 06:36:15;;;;;;;1.60;1.40;;;6.20;98.20;;;;;;4994501;28;20467;-78
2022/04/09 06:38:42;;;;;;;1.57;1.30;;;6.40;98.20;;;;;;4998416;28;20503;-77
2022/04/09 06:41:08;;;;;;;1.60;1.30;;;6.70;98.20;;;;;;4990504;28;20473;-78
2022/04/09 06:43:35;;;;;;;1.60;1.37;;;6.90;98.20;;;;;;4990531;28;20468;-78
2022/04/09 06:46:02;;;;;;;1.57;1.30;;;7.10;98.20;;;;;;4991000;28;20548;-78
2022/04/09 06:48:29;;;;;;;1.50;1.20;;;7.30;98.20;;;;;;4989556;28;20473;-79
2022/04/09 06:50:57;;;;;;;1.57;1.30;;;7.50;98.20;;;;;;4990577;28;20476;-80
2022/04/09 06:53:24;;;;;;;1.53;1.23;;;7.70;98.20;;;;;;4990509;28;20468;-76
2022/04/09 06:55:50;;;;;;;1.53;1.30;;;8.00;98.20;;;;;;4990275;28;20468;-78
2022/04/09 06:58:17;;;;;;;1.50;1.20;;;8.10;98.20;;;;;;5008953;28;20964;-78
2022/04/09 07:00:44;;;;;;;1.50;1.20;;;8.20;98.20;;;;;;4988546;28;20476;-78
2022/04/09 07:03:12;;;;;;;1.60;1.30;;;8.20;98.20;;;;;;5009094;28;20456;-79
2022/04/09 07:05:39;;;;;;;1.60;1.20;;;8.10;98.20;;;;;;5006751;28;20484;-78
2022/04/09 07:08:08;;;;;;;1.60;1.20;;;8.10;98.20;;;;;;5008368;28;20900;-78
2022/04/09 07:10:36;;;;;;;1.50;1.20;;;8.10;98.20;;;;;;4998328;28;20487;-80
2022/04/09 07:13:03;;;;;;;1.60;1.20;;;8.10;98.20;;;;;;4990509;28;20488;-79
2022/04/09 07:15:30;;;;;;;1.50;1.20;;;7.90;98.20;;;;;;4989216;28;20457;-78
2022/04/09 07:17:56;;;;;;;1.60;1.27;;;7.90;98.20;;;;;;5006432;28;20492;-79
2022/04/09 07:20:23;;;;;;;1.60;1.30;;;8.10;98.20;;;;;;4990277;28;20535;-76
2022/04/09 07:22:50;;;;;;;1.57;1.20;;;8.40;98.20;;;;;;5004827;28;20543;-79
2022/04/09 07:25:18;;;;;;;2.27;2.07;;;8.80;98.20;;;;;;4998817;28;20485;-79
2022/04/09 07:27:46;;;;;;;1.50;1.20;;;9.00;97.70;;;;;;4990071;28;20457;-79
2022/04/09 07:30:15;;;;;;;1.60;1.27;;;8.90;96.90;;;;;;4989616;28;20990;-78
2022/04/09 07:32:42;;;;;;;1.60;1.20;;;8.90;97.70;;;;;;5003839;28;20462;-77
2022/04/09 07:35:10;;;;;;;1.53;1.20;;;9.00;97.80;;;;;;4989166;28;20555;-76
2022/04/09 07:37:41;;;;;;;1.53;1.10;;;9.20;97.00;;;;;;5003599;28;20463;-76
2022/04/09 07:40:09;;;;;;;1.50;1.10;;;9.40;96.40;;;;;;4993419;28;20517;-76
2022/04/09 07:42:37;;;;;;;1.60;1.20;;;9.60;96.50;;;;;;4990119;28;20464;-77
2022/04/09 07:45:05;;;;;;;5.40;3.27;;;9.90;94.90;;;;;;4989216;28;20481;-77
2022/04/09 07:47:32;;;;;;;1.50;1.20;;;10.00;94.00;;;;;;4985707;28;20477;-77
2022/04/09 07:50:00;;;;;;;1.50;1.10;;;10.10;93.80;;;;;;4986636;28;20890;-77
2022/04/09 07:52:27;;;;;;;1.87;1.53;;;10.20;93.60;;;;;;4988830;28;20465;-79
2022/04/09 07:54:57;;;;;;;1.53;1.10;;;10.30;94.30;;;;;;4985687;28;20468;-77
2022/04/09 07:57:24;;;;;;;1.50;1.20;;;10.60;92.30;;;;;;4998920;28;20464;-80
2022/04/09 07:59:53;;;;;;;1.60;1.50;;;10.70;91.90;;;;;;4987087;28;20547;-77
2022/04/09 08:02:20;;;;;;;1.53;1.10;;;10.60;91.60;;;;;;4986054;28;20469;-79
2022/04/09 08:04:47;;;;;;;1.50;1.10;;;10.50;91.70;;;;;;4987415;28;20567;-77
2022/04/09 08:07:13;;;;;;;1.53;1.10;;;10.40;92.40;;;;;;4993094;28;20461;-77
2022/04/09 08:09:41;;;;;;;1.50;1.20;;;10.50;93.00;;;;;;4985314;28;20996;-78
2022/04/09 08:12:09;;;;;;;1.50;1.10;;;10.60;91.80;;;;;;4985200;28;20528;-77
2022/04/09 08:14:35;;;;;;;1.50;1.17;;;10.70;92.00;;;;;;4984240;28;20527;-77
2022/04/09 08:17:04;;;;;;;1.50;1.00;;;10.80;91.80;;;;;;4994517;28;20472;-77
2022/04/09 08:19:31;;;;;;;1.50;1.20;;;10.90;90.90;;;;;;4990711;28;20484;-77
2022/04/09 08:21:59;;;;;;;1.50;1.10;;;11.10;90.40;;;;;;4984632;28;20465;-77
2022/04/09 08:24:26;;;;;;;1.50;1.00;;;11.30;90.70;;;;;;4986256;28;20461;-76
2022/04/09 08:26:53;;;;;;;1.50;1.00;;;11.40;89.70;;;;;;4994239;28;20843;-75
2022/04/09 08:29:20;;;;;;;1.50;1.00;;;11.40;91.10;;;;;;4991236;28;20824;-74
2022/04/09 08:31:47;;;;;;;1.50;1.10;;;11.20;92.80;;;;;;4991113;28;20461;-74
2022/04/09 08:34:17;;;;;;;1.50;1.10;;;11.00;94.00;;;;;;4981326;28;20548;-74
2022/04/09 08:36:44;;;;;;;1.50;1.10;;;10.70;94.40;;;;;;4992770;28;20756;-74
2022/04/09 08:39:11;;;;;;;1.50;1.10;;;10.30;94.60;;;;;;4992422;28;21008;-75
2022/04/09 08:41:42;;;;;;;1.50;1.10;;;10.10;95.00;;;;;;4987660;28;20563;-74
2022/04/09 08:44:10;;;;;;;1.50;1.03;;;9.80;95.20;;;;;;4981741;28;20469;-75
2022/04/09 08:46:37;;;;;;;1.50;1.20;;;9.70;95.60;;;;;;4990699;28;20869;-74
2022/04/09 08:49:05;;;;;;;1.50;1.10;;;9.50;95.60;;;;;;4990901;28;20513;-75
2022/04/09 08:51:34;;;;;;;1.50;1.10;;;9.40;96.20;;;;;;4977657;28;20844;-75
2022/04/09 08:54:02;;;;;;;1.50;1.10;;;9.40;96.70;;;;;;4973749;28;20823;-76
2022/04/09 08:56:30;;;;;;;1.50;1.10;;;9.30;96.50;;;;;;4973229;28;20497;-76
2022/04/09 08:58:58;;;;;;;1.50;1.00;;;9.20;96.20;;;;;;4970428;28;20558;-75
2022/04/09 09:01:25;;;;;;;1.60;1.33;;;9.10;96.20;;;;;;4974338;28;20473;-77
2022/04/09 09:03:56;;;;;;;1.50;1.10;;;9.00;96.70;;;;;;4969390;28;20497;-76
2022/04/09 09:06:27;;;;;;;1.50;1.20;;;8.80;97.30;;;;;;4980899;28;21395;-76
2022/04/09 09:08:57;;;;;;;1.50;1.10;;;8.70;97.50;;;;;;4971559;28;20485;-76
2022/04/09 09:11:26;;;;;;;1.50;1.20;;;8.50;98.20;;;;;;4971752;28;20462;-76
2022/04/09 09:13:55;;;;;;;1.50;1.20;;;8.60;98.20;;;;;;4965071;28;20549;-76
2022/04/09 09:16:26;;;;;;;1.50;1.20;;;8.50;98.20;;;;;;4950375;28;20464;-76
2022/04/09 09:18:59;;;;;;;1.50;1.20;;;8.40;98.20;;;;;;4979988;28;20575;-76
2022/04/09 09:21:27;;;;;;;1.50;1.10;;;8.30;98.20;;;;;;4961770;28;20470;-74
2022/04/09 09:24:12;;;;;;;1.50;1.20;;;8.20;98.20;;;;;;4970921;28;20469;-73
2022/04/09 09:26:40;;;;;;;1.53;1.20;;;8.00;98.20;;;;;;4968043;28;21955;-73
2022/04/09 09:29:08;;;;;;;1.50;1.20;;;7.80;98.20;;;;;;4968966;28;21051;-72
2022/04/09 09:31:42;;;;;;;1.57;1.20;;;7.70;98.20;;;;;;4973050;28;20472;-72
2022/04/09 09:34:11;;;;;;;1.50;1.20;;;7.60;98.20;;;;;;4973991;28;21025;-73
2022/04/09 09:36:40;;;;;;;1.57;1.20;;;7.40;98.20;;;;;;4979657;28;20490;-74
2022/04/09 09:39:09;;;;;;;1.50;1.20;;;7.20;98.20;;;;;;4974493;28;20489;-74
2022/04/09 09:41:53;;;;;;;1.50;1.20;;;7.10;98.20;;;;;;4975088;28;20465;-74
2022/04/09 09:44:25;;;;;;;1.50;1.20;;;6.90;98.20;;;;;;4960894;28;20460;-73
2022/04/09 09:46:54;;;;;;;1.60;1.30;;;6.80;98.20;;;;;;4979527;28;20900;-75
2022/04/09 09:49:25;;;;;;;1.53;1.20;;;6.80;98.20;;;;;;4977906;28;20561;-75
2022/04/09 09:52:09;;;;;;;1.60;1.30;;;7.10;98.20;;;;;;4972120;28;20465;-73
2022/04/09 09:54:56;;;;;;;1.50;1.10;;;7.60;98.20;;;;;;4960414;28;20497;-73
2022/04/09 09:57:39;;;;;;;1.53;1.20;;;8.30;98.20;;;;;;4962312;28;20540;-74
2022/04/09 10:00:10;;;;;;;1.53;1.10;;;8.90;98.20;;;;;;4947388;28;21064;-76
2022/04/09 10:02:40;;;;;;;1.57;1.20;;;9.50;98.20;;;;;;4966325;28;20471;-75
2022/04/09 10:05:09;;;;;;;1.50;1.10;;;10.20;98.20;;;;;;4979730;28;20501;-76
2022/04/09 10:07:36;;;;;;;1.53;1.10;;;10.60;98.20;;;;;;4974463;28;20557;-76
2022/04/09 10:10:08;;;;;;;1.50;1.10;;;10.70;98.20;;;;;;4968802;28;20743;-76
2022/04/09 10:12:41;;;;;;;1.50;1.10;;;10.80;98.20;;;;;;4953301;28;20543;-77
2022/04/09 10:15:10;;;;;;;1.50;1.00;;;10.90;97.80;;;;;;4967380;28;20497;-77
2022/04/09 10:17:42;;;;;;;1.50;1.00;;;11.00;98.10;;;;;;4972203;28;20466;-76
2022/04/09 10:20:11;;;;;;;1.50;1.10;;;11.00;97.30;;;;;;4950562;28;20492;-76
2022/04/09 10:22:43;;;;;;;1.50;1.00;;;10.80;91.00;;;;;;4969657;28;20477;-76
2022/04/09 10:25:12;;;;;;;1.50;1.10;;;10.80;93.10;;;;;;4966957;28;20985;-77
2022/04/09 10:27:41;;;;;;;2.00;1.63;;;11.10;92.40;;;;;;4980352;28;20469;-77
2022/04/09 10:30:19;;;;;;;1.50;1.10;;;11.20;91.40;;;;;;4966916;28;20590;-76
2022/04/09 10:32:48;;;;;;;1.50;1.00;;;11.50;91.50;;;;;;4974613;28;20528;-77
2022/04/09 10:35:26;;;;;;;1.50;1.10;;;12.00;90.10;;;;;;4969304;28;20462;-76
2022/04/09 10:38:22;;;;;;;1.50;1.00;;;12.50;89.20;;;;;;4998963;28;20521;-77
2022/04/09 10:41:27;;;;;;;1.50;0.90;;;13.10;87.70;;;;;;4982164;28;20481;-77
2022/04/09 10:43:59;;;;;;;1.50;1.10;;;13.60;84.30;;;;;;4973855;28;20484;-76
2022/04/09 10:46:35;;;;;;;1.50;1.00;;;13.70;81.80;;;;;;4978029;28;20494;-76
2022/04/09 10:49:20;;;;;;;1.50;1.00;;;13.30;81.80;;;;;;4951107;28;20564;-76
2022/04/09 10:52:15;;;;;;;1.70;1.43;;;12.80;83.30;;;;;;4971097;28;20464;-75
2022/04/09 10:55:03;;;;;;;1.50;1.10;;;12.40;85.00;;;;;;4970313;28;20466;-77
2022/04/09 10:57:42;;;;;;;1.77;1.67;;;12.20;86.80;;;;;;4966812;28;20554;-76
2022/04/09 11:00:30;;;;;;;1.50;1.10;;;12.10;86.30;;;;;;4978425;28;20505;-77
2022/04/09 11:03:05;;;;;;;2.73;2.20;;;11.70;87.50;;;;;;4975116;28;20493;-77
2022/04/09 11:05:33;;;;;;;1.60;1.17;;;11.50;87.40;;;;;;4978903;28;20494;-77
2022/04/09 11:08:07;;;;;;;1.50;1.00;;;11.10;87.50;;;;;;4974430;28;20496;-76
2022/04/09 11:10:34;;;;;;;1.50;1.00;;;10.80;89.50;;;;;;4970062;28;21004;-76
2022/04/09 11:13:02;;;;;;;1.50;1.10;;;10.40;89.90;;;;;;4974815;28;20470;-72
2022/04/09 11:15:30;;;;;;;1.50;1.03;;;10.00;92.40;;;;;;4978465;28;21251;-74
2022/04/09 11:18:01;;;;;;;1.47;1.00;;;9.60;93.20;;;;;;4976171;28;20548;-74
2022/04/09 11:20:32;;;;;;;1.50;1.00;;;9.30;94.80;;;;;;4979050;28;20485;-74
2022/04/09 11:23:08;;;;;;;1.50;1.00;;;9.20;96.00;;;;;;4970519;28;20762;-74
2022/04/09 11:25:36;;;;;;;1.50;1.10;;;9.10;95.70;;;;;;4970634;28;21009;-75
2022/04/09 11:28:07;;;;;;;1.50;1.10;;;9.10;96.70;;;;;;4992400;28;20539;-75
2022/04/09 11:30:35;;;;;;;1.50;1.10;;;9.10;95.70;;;;;;4979873;28;20575;-75
2022/04/09 11:33:03;;;;;;;1.50;1.00;;;9.00;95.90;;;;;;4976839;28;20473;-75
2022/04/09 11:35:34;;;;;;;1.50;1.10;;;9.00;96.20;;;;;;4973296;28;20852;-75
2022/04/09 11:38:01;;;;;;;1.50;1.10;;;8.90;96.80;;;;;;4975554;28;20699;-76
2022/04/09 11:40:28;;;;;;;1.47;1.00;;;9.20;97.40;;;;;;4974561;28;20486;-76
2022/04/09 11:42:57;;;;;;;1.50;1.00;;;9.70;97.50;;;;;;4977330;28;20480;-77
2022/04/09 11:45:28;;;;;;;1.50;1.00;;;10.30;96.50;;;;;;4977658;28;20466;-77
2022/04/09 11:47:58;;;;;;;1.50;1.10;;;10.80;94.10;;;;;;4982996;28;20494;-77
2022/04/09 11:50:26;;;;;;;1.50;1.10;;;11.20;94.10;;;;;;4977096;28;20485;-77
2022/04/09 11:52:53;;;;;;;1.50;1.00;;;11.60;92.20;;;;;;4970173;28;20470;-78
2022/04/09 11:55:20;;;;;;;1.50;1.00;;;11.80;90.80;;;;;;4975073;28;20945;-77
2022/04/09 11:57:52;;;;;;;1.50;1.00;;;12.10;91.80;;;;;;4978354;28;21188;-76
2022/04/09 12:00:25;;;;;;;1.50;1.00;;;12.40;90.90;;;;;;4982001;28;20492;-76
2022/04/09 12:02:52;;;;;;;1.50;1.00;;;12.40;88.00;;;;;;4989377;28;20475;-75
2022/04/09 12:05:21;;;;;;;1.50;1.00;;;12.20;86.60;;;;;;4982970;28;20473;-73
2022/04/09 12:07:49;;;;;;;1.50;1.00;;;11.90;88.60;;;;;;4985270;28;20516;-74
2022/04/09 12:10:26;;;;;;;1.50;1.00;;;11.70;89.50;;;;;;4983640;28;20912;-73
2022/04/09 12:12:58;;;;;;;1.50;1.10;;;11.50;89.80;;;;;;4982029;28;20469;-74
2022/04/09 12:15:30;;;;;;;1.50;1.00;;;11.30;89.70;;;;;;4983031;28;20469;-74
2022/04/09 12:17:57;;;;;;;1.50;1.03;;;11.00;90.20;;;;;;4984400;28;20611;-75
2022/04/09 12:20:34;;;;;;;1.50;1.03;;;11.00;91.10;;;;;;4982967;28;20496;-75
2022/04/09 12:23:01;;;;;;;1.50;0.97;;;10.90;91.50;;;;;;4999488;28;20513;-76
2022/04/09 12:25:36;;;;;;;1.50;1.00;;;10.90;89.90;;;;;;4984090;28;20560;-76
2022/04/09 12:28:04;;;;;;;1.50;1.00;;;10.90;90.80;;;;;;4991895;28;20480;-75
2022/04/09 12:30:41;;;;;;;1.50;0.90;;;10.90;89.90;;;;;;4982814;28;20516;-76
2022/04/09 12:33:10;;;;;;;1.50;1.00;;;10.90;89.50;;;;;;4986762;28;20490;-76
2022/04/09 12:35:39;;;;;;;1.50;1.00;;;11.10;90.70;;;;;;4982905;28;21240;-76
2022/04/09 12:38:06;;;;;;;1.50;1.00;;;11.60;90.20;;;;;;4983804;28;20973;-76
2022/04/09 12:40:34;;;;;;;1.50;1.00;;;12.10;89.80;;;;;;4981275;28;20490;-77
2022/04/09 12:43:03;;;;;;;1.50;1.00;;;12.60;88.50;;;;;;4983747;28;21047;-77
2022/04/09 12:45:31;;;;;;;1.50;1.00;;;13.00;84.70;;;;;;4985772;28;20905;-77
2022/04/09 12:48:00;;;;;;;1.50;1.00;;;13.30;87.10;;;;;;4993603;28;20492;-77
2022/04/09 12:50:28;;;;;;;1.50;1.00;;;13.70;85.90;;;;;;4983192;28;20480;-79
2022/04/09 12:52:58;;;;;;;1.50;1.00;;;14.00;81.70;;;;;;4982742;28;20465;-74
2022/04/09 12:55:26;;;;;;;1.50;1.00;;;14.10;75.50;;;;;;4984187;28;20527;-76
2022/04/09 12:57:54;;;;;;;1.50;1.00;;;13.70;74.00;;;;;;4997096;28;20473;-76
2022/04/09 13:00:23;;;;;;;1.50;1.10;;;13.40;75.50;;;;;;4983013;28;20508;-76
2022/04/09 13:02:50;;;;;;;1.50;1.00;;;13.30;75.80;;;;;;4985539;28;20535;-76